Bainbridge Township, Ohio
Current Conditions -  °F | °C
As of 6:58 PM on Saturday 25 Oct 2014 (Local Time) from KPOV Reporting Station
Clear Clear  
Wind Chill: 65°   Ceiling: Unl
Heat Index: 65°   Visibility: 10mi
Dew Point: 36°   Wind: 15mph
Humidity: 34%   Direction: 280°W
Pressure: 29.75"   Gusts: 29mph
Location:  41.3913°N, 81.3197°W
Report Text: KPOV 252258Z AUTO 28013G25KT 10SM CLR 18/02 A2975 RMK AO2 T01830022
Loading
Personal Weather Stations






























Interactive Weather Map
Tropical Storm Tracking
New forecast layout! Learn more

10-Day Weather Forecast

Advertisements
Track Severe Weather on mobile